sensor_id;sensor_type;location;lat;lon;timestamp;temperature;humidity
41557;DHT22;27720;51.992;5.890;2024-01-27T10:57:31;2.40;99.90
41557;DHT22;27720;51.992;5.890;2024-01-27T10:59:58;2.70;99.90
41557;DHT22;27720;51.992;5.890;2024-01-27T11:02:24;3.30;99.90
41557;DHT22;27720;51.992;5.890;2024-01-27T11:04:51;4.00;99.90
41557;DHT22;27720;51.992;5.890;2024-01-27T11:07:19;4.50;99.90
41557;DHT22;27720;51.992;5.890;2024-01-27T11:09:49;4.90;99.90
41557;DHT22;27720;51.992;5.890;2024-01-27T11:12:16;5.30;99.90
41557;DHT22;27720;51.992;5.890;2024-01-27T11:14:42;5.50;99.90
41557;DHT22;27720;51.992;5.890;2024-01-27T11:17:08;5.80;99.90
41557;DHT22;27720;51.992;5.890;2024-01-27T11:19:34;6.00;99.90
41557;DHT22;27720;51.992;5.890;2024-01-27T11:22:04;6.20;99.90
41557;DHT22;27720;51.992;5.890;2024-01-27T11:24:30;6.30;99.90
41557;DHT22;27720;51.992;5.890;2024-01-27T11:27:05;6.40;99.90
41557;DHT22;27720;51.992;5.890;2024-01-27T11:29:32;6.60;99.90
41557;DHT22;27720;51.992;5.890;2024-01-27T11:32:02;6.70;99.90
41557;DHT22;27720;51.992;5.890;2024-01-27T11:34:40;6.70;99.90
41557;DHT22;27720;51.992;5.890;2024-01-27T11:37:16;6.80;99.90
41557;DHT22;27720;51.992;5.890;2024-01-27T11:39:42;6.90;99.90
41557;DHT22;27720;51.992;5.890;2024-01-27T11:42:11;7.00;99.90
41557;DHT22;27720;51.992;5.890;2024-01-27T11:44:41;7.10;99.90
41557;DHT22;27720;51.992;5.890;2024-01-27T11:47:15;7.10;99.90
41557;DHT22;27720;51.992;5.890;2024-01-27T11:49:42;7.20;99.90
41557;DHT22;27720;51.992;5.890;2024-01-27T11:52:08;7.20;99.90
41557;DHT22;27720;51.992;5.890;2024-01-27T11:54:34;7.30;99.90
41557;DHT22;27720;51.992;5.890;2024-01-27T11:56:59;7.30;99.90
41557;DHT22;27720;51.992;5.890;2024-01-27T11:59:25;7.40;99.90
41557;DHT22;27720;51.992;5.890;2024-01-27T12:01:51;7.40;99.90
41557;DHT22;27720;51.992;5.890;2024-01-27T12:04:17;7.40;99.90
41557;DHT22;27720;51.992;5.890;2024-01-27T12:06:43;7.40;99.90
41557;DHT22;27720;51.992;5.890;2024-01-27T12:09:09;7.50;99.90
41557;DHT22;27720;51.992;5.890;2024-01-27T12:11:40;7.50;99.90
41557;DHT22;27720;51.992;5.890;2024-01-27T12:14:06;7.60;99.90
41557;DHT22;27720;51.992;5.890;2024-01-27T12:16:32;7.60;99.90
41557;DHT22;27720;51.992;5.890;2024-01-27T12:18:58;7.60;99.90
41557;DHT22;27720;51.992;5.890;2024-01-27T12:21:24;7.70;99.90
41557;DHT22;27720;51.992;5.890;2024-01-27T12:23:54;7.70;99.90
41557;DHT22;27720;51.992;5.890;2024-01-27T12:26:25;7.80;99.90
41557;DHT22;27720;51.992;5.890;2024-01-27T12:28:51;7.80;99.90
41557;DHT22;27720;51.992;5.890;2024-01-27T12:31:18;7.90;99.90
41557;DHT22;27720;51.992;5.890;2024-01-27T12:33:51;7.90;99.90
41557;DHT22;27720;51.992;5.890;2024-01-27T12:36:18;8.00;99.90
41557;DHT22;27720;51.992;5.890;2024-01-27T12:39:00;8.00;99.90
41557;DHT22;27720;51.992;5.890;2024-01-27T12:41:26;8.00;99.90
41557;DHT22;27720;51.992;5.890;2024-01-27T12:43:53;8.10;99.90
41557;DHT22;27720;51.992;5.890;2024-01-27T12:46:19;8.10;99.90
41557;DHT22;27720;51.992;5.890;2024-01-27T12:48:48;8.20;99.90
41557;DHT22;27720;51.992;5.890;2024-01-27T12:51:14;8.20;99.90
41557;DHT22;27720;51.992;5.890;2024-01-27T12:53:41;8.20;99.90
41557;DHT22;27720;51.992;5.890;2024-01-27T12:56:09;8.20;99.90
41557;DHT22;27720;51.992;5.890;2024-01-27T12:58:37;8.30;99.90
41557;DHT22;27720;51.992;5.890;2024-01-27T13:01:03;8.30;99.90
41557;DHT22;27720;51.992;5.890;2024-01-27T13:03:28;8.40;99.90
41557;DHT22;27720;51.992;5.890;2024-01-27T13:05:55;8.40;99.90
41557;DHT22;27720;51.992;5.890;2024-01-27T13:08:21;8.40;99.90
41557;DHT22;27720;51.992;5.890;2024-01-27T13:10:47;8.40;99.90
41557;DHT22;27720;51.992;5.890;2024-01-27T13:13:13;8.50;99.90
41557;DHT22;27720;51.992;5.890;2024-01-27T13:15:39;8.50;99.90
41557;DHT22;27720;51.992;5.890;2024-01-27T13:18:05;8.60;99.90
41557;DHT22;27720;51.992;5.890;2024-01-27T13:20:31;8.60;99.90
41557;DHT22;27720;51.992;5.890;2024-01-27T13:22:58;8.60;99.90
41557;DHT22;27720;51.992;5.890;2024-01-27T13:25:24;8.60;99.90
41557;DHT22;27720;51.992;5.890;2024-01-27T13:27:50;8.60;99.90
41557;DHT22;27720;51.992;5.890;2024-01-27T13:30:16;8.60;99.90
41557;DHT22;27720;51.992;5.890;2024-01-27T13:32:45;8.60;99.90
41557;DHT22;27720;51.992;5.890;2024-01-27T13:35:10;8.70;99.90
41557;DHT22;27720;51.992;5.890;2024-01-27T13:37:36;8.70;99.90
41557;DHT22;27720;51.992;5.890;2024-01-27T13:40:03;8.60;99.90
41557;DHT22;27720;51.992;5.890;2024-01-27T13:42:30;8.70;99.90
41557;DHT22;27720;51.992;5.890;2024-01-27T13:44:59;8.70;99.90
41557;DHT22;27720;51.992;5.890;2024-01-27T13:47:27;8.70;99.90
41557;DHT22;27720;51.992;5.890;2024-01-27T13:49:53;8.70;99.90
41557;DHT22;27720;51.992;5.890;2024-01-27T13:52:19;8.70;99.90
41557;DHT22;27720;51.992;5.890;2024-01-27T13:54:45;8.70;99.90
41557;DHT22;27720;51.992;5.890;2024-01-27T13:57:11;8.70;99.90
41557;DHT22;27720;51.992;5.890;2024-01-27T13:59:37;8.70;99.90
41557;DHT22;27720;51.992;5.890;2024-01-27T14:02:03;8.70;99.90
41557;DHT22;27720;51.992;5.890;2024-01-27T14:04:29;8.70;99.90
41557;DHT22;27720;51.992;5.890;2024-01-27T14:06:55;8.80;99.90
41557;DHT22;27720;51.992;5.890;2024-01-27T14:09:22;8.80;99.90
41557;DHT22;27720;51.992;5.890;2024-01-27T14:11:48;8.80;99.90
41557;DHT22;27720;51.992;5.890;2024-01-27T14:14:14;8.80;99.90
41557;DHT22;27720;51.992;5.890;2024-01-27T14:16:39;8.80;99.90
41557;DHT22;27720;51.992;5.890;2024-01-27T14:19:06;8.80;99.90
41557;DHT22;27720;51.992;5.890;2024-01-27T14:21:33;8.80;99.90
41557;DHT22;27720;51.992;5.890;2024-01-27T14:23:59;8.90;99.90
41557;DHT22;27720;51.992;5.890;2024-01-27T14:26:30;8.90;99.90
41557;DHT22;27720;51.992;5.890;2024-01-27T14:28:56;8.90;99.90
41557;DHT22;27720;51.992;5.890;2024-01-27T14:31:22;8.90;99.90
41557;DHT22;27720;51.992;5.890;2024-01-27T14:33:48;8.90;99.90
41557;DHT22;27720;51.992;5.890;2024-01-27T14:36:14;8.90;99.90
41557;DHT22;27720;51.992;5.890;2024-01-27T14:38:42;8.90;99.90
41557;DHT22;27720;51.992;5.890;2024-01-27T14:41:08;8.90;99.90
41557;DHT22;27720;51.992;5.890;2024-01-27T14:43:37;8.90;99.90
41557;DHT22;27720;51.992;5.890;2024-01-27T14:46:04;8.90;99.90
41557;DHT22;27720;51.992;5.890;2024-01-27T14:48:30;8.90;99.90
41557;DHT22;27720;51.992;5.890;2024-01-27T14:50:56;9.00;99.90
41557;DHT22;27720;51.992;5.890;2024-01-27T14:53:29;9.00;99.90
41557;DHT22;27720;51.992;5.890;2024-01-27T14:55:55;9.00;99.90
41557;DHT22;27720;51.992;5.890;2024-01-27T14:58:21;9.00;99.90
41557;DHT22;27720;51.992;5.890;2024-01-27T15:00:47;9.00;99.90
41557;DHT22;27720;51.992;5.890;2024-01-27T15:03:21;9.00;99.90
41557;DHT22;27720;51.992;5.890;2024-01-27T15:05:48;9.00;99.90
41557;DHT22;27720;51.992;5.890;2024-01-27T15:08:15;9.00;99.90
41557;DHT22;27720;51.992;5.890;2024-01-27T15:10:41;9.00;99.90
41557;DHT22;27720;51.992;5.890;2024-01-27T15:13:09;9.00;99.90
41557;DHT22;27720;51.992;5.890;2024-01-27T15:15:36;9.00;99.90
41557;DHT22;27720;51.992;5.890;2024-01-27T15:18:02;9.00;99.90
41557;DHT22;27720;51.992;5.890;2024-01-27T15:20:28;9.00;99.90
41557;DHT22;27720;51.992;5.890;2024-01-27T15:22:54;9.00;99.90
41557;DHT22;27720;51.992;5.890;2024-01-27T15:25:20;9.00;99.90
41557;DHT22;27720;51.992;5.890;2024-01-27T15:27:47;9.00;99.90
41557;DHT22;27720;51.992;5.890;2024-01-27T15:30:13;8.90;99.90
41557;DHT22;27720;51.992;5.890;2024-01-27T15:32:39;8.90;99.90
41557;DHT22;27720;51.992;5.890;2024-01-27T15:35:08;8.90;99.90
41557;DHT22;27720;51.992;5.890;2024-01-27T15:37:34;8.80;99.90
41557;DHT22;27720;51.992;5.890;2024-01-27T15:40:00;8.80;99.90
41557;DHT22;27720;51.992;5.890;2024-01-27T15:42:25;8.80;99.90
41557;DHT22;27720;51.992;5.890;2024-01-27T15:44:51;8.70;99.90
41557;DHT22;27720;51.992;5.890;2024-01-27T15:47:17;8.70;99.90
41557;DHT22;27720;51.992;5.890;2024-01-27T15:49:42;8.70;99.90
41557;DHT22;27720;51.992;5.890;2024-01-27T15:52:08;8.70;99.90
41557;DHT22;27720;51.992;5.890;2024-01-27T15:54:34;8.60;99.90
41557;DHT22;27720;51.992;5.890;2024-01-27T15:57:03;8.60;99.90
41557;DHT22;27720;51.992;5.890;2024-01-27T15:59:28;8.60;99.90
41557;DHT22;27720;51.992;5.890;2024-01-27T16:01:54;8.50;99.90
41557;DHT22;27720;51.992;5.890;2024-01-27T16:04:20;8.60;99.90
41557;DHT22;27720;51.992;5.890;2024-01-27T16:06:45;8.50;99.90
41557;DHT22;27720;51.992;5.890;2024-01-27T16:09:17;8.50;99.90
41557;DHT22;27720;51.992;5.890;2024-01-27T16:11:56;8.50;99.90
41557;DHT22;27720;51.992;5.890;2024-01-27T16:14:22;8.40;99.90
41557;DHT22;27720;51.992;5.890;2024-01-27T16:16:48;8.40;99.90
41557;DHT22;27720;51.992;5.890;2024-01-27T16:19:13;8.40;99.90
41557;DHT22;27720;51.992;5.890;2024-01-27T16:21:39;8.30;99.90
41557;DHT22;27720;51.992;5.890;2024-01-27T16:24:05;8.30;99.90
41557;DHT22;27720;51.992;5.890;2024-01-27T16:26:31;8.30;99.90
41557;DHT22;27720;51.992;5.890;2024-01-27T16:28:57;8.30;99.90
41557;DHT22;27720;51.992;5.890;2024-01-27T16:31:23;8.20;99.90
41557;DHT22;27720;51.992;5.890;2024-01-27T16:33:49;8.20;99.90
41557;DHT22;27720;51.992;5.890;2024-01-27T16:36:14;8.20;99.90
41557;DHT22;27720;51.992;5.890;2024-01-27T16:38:40;8.20;99.90
41557;DHT22;27720;51.992;5.890;2024-01-27T16:41:15;8.20;99.90
41557;DHT22;27720;51.992;5.890;2024-01-27T16:43:42;8.20;99.90
41557;DHT22;27720;51.992;5.890;2024-01-27T16:46:07;8.10;99.90
41557;DHT22;27720;51.992;5.890;2024-01-27T16:48:43;8.10;99.90
41557;DHT22;27720;51.992;5.890;2024-01-27T16:51:09;8.10;99.90
41557;DHT22;27720;51.992;5.890;2024-01-27T16:53:35;8.00;99.90
41557;DHT22;27720;51.992;5.890;2024-01-27T16:56:05;8.00;99.90
41557;DHT22;27720;51.992;5.890;2024-01-27T17:16:55;7.70;99.90
41557;DHT22;27720;51.992;5.890;2024-01-27T17:19:21;7.70;99.90
41557;DHT22;27720;51.992;5.890;2024-01-27T17:21:47;7.60;99.90
41557;DHT22;27720;51.992;5.890;2024-01-27T17:24:13;7.60;99.90
41557;DHT22;27720;51.992;5.890;2024-01-27T17:26:39;7.60;99.90
41557;DHT22;27720;51.992;5.890;2024-01-27T17:29:07;7.60;99.90
41557;DHT22;27720;51.992;5.890;2024-01-27T17:31:33;7.50;99.90
41557;DHT22;27720;51.992;5.890;2024-01-27T17:33:59;7.50;99.90
41557;DHT22;27720;51.992;5.890;2024-01-27T17:36:25;7.50;99.90
41557;DHT22;27720;51.992;5.890;2024-01-27T17:38:50;7.40;99.90
41557;DHT22;27720;51.992;5.890;2024-01-27T17:41:17;7.40;99.90
41557;DHT22;27720;51.992;5.890;2024-01-27T17:43:43;7.40;99.90
41557;DHT22;27720;51.992;5.890;2024-01-27T17:46:08;7.40;99.90
41557;DHT22;27720;51.992;5.890;2024-01-27T17:48:36;7.30;99.90
41557;DHT22;27720;51.992;5.890;2024-01-27T17:51:03;7.30;99.90
41557;DHT22;27720;51.992;5.890;2024-01-27T17:53:45;7.30;99.90
41557;DHT22;27720;51.992;5.890;2024-01-27T18:05:44;7.20;99.90
41557;DHT22;27720;51.992;5.890;2024-01-27T18:08:32;7.10;99.90
41557;DHT22;27720;51.992;5.890;2024-01-27T18:11:49;7.10;99.90
41557;DHT22;27720;51.992;5.890;2024-01-27T18:15:04;7.10;99.90
41557;DHT22;27720;51.992;5.890;2024-01-27T18:18:00;7.10;99.90
41557;DHT22;27720;51.992;5.890;2024-01-27T18:21:20;7.00;99.90
41557;DHT22;27720;51.992;5.890;2024-01-27T18:24:05;7.00;99.90
41557;DHT22;27720;51.992;5.890;2024-01-27T18:27:20;7.00;99.90
41557;DHT22;27720;51.992;5.890;2024-01-27T18:30:41;7.00;99.90
41557;DHT22;27720;51.992;5.890;2024-01-27T18:33:23;6.90;99.90
41557;DHT22;27720;51.992;5.890;2024-01-27T18:36:40;6.90;99.90
41557;DHT22;27720;51.992;5.890;2024-01-27T18:40:45;6.80;99.90
41557;DHT22;27720;51.992;5.890;2024-01-27T19:37:50;6.40;99.90
41557;DHT22;27720;51.992;5.890;2024-01-27T19:46:58;6.20;99.90
41557;DHT22;27720;51.992;5.890;2024-01-27T19:50:44;6.20;99.90
41557;DHT22;27720;51.992;5.890;2024-01-27T19:54:01;6.20;99.90
41557;DHT22;27720;51.992;5.890;2024-01-27T19:57:06;6.10;99.90
41557;DHT22;27720;51.992;5.890;2024-01-27T20:00:04;6.10;99.90
41557;DHT22;27720;51.992;5.890;2024-01-27T20:02:33;6.10;99.90
41557;DHT22;27720;51.992;5.890;2024-01-27T20:05:07;6.10;99.90
41557;DHT22;27720;51.992;5.890;2024-01-27T20:07:42;6.10;99.90
41557;DHT22;27720;51.992;5.890;2024-01-27T20:10:12;6.10;99.90
41557;DHT22;27720;51.992;5.890;2024-01-27T20:12:48;6.00;99.90
41557;DHT22;27720;51.992;5.890;2024-01-27T20:15:16;6.00;99.90
41557;DHT22;27720;51.992;5.890;2024-01-27T20:17:45;6.00;99.90
41557;DHT22;27720;51.992;5.890;2024-01-27T20:20:12;6.00;99.90
41557;DHT22;27720;51.992;5.890;2024-01-27T20:23:04;6.00;99.90
41557;DHT22;27720;51.992;5.890;2024-01-27T20:25:49;5.90;99.90
41557;DHT22;27720;51.992;5.890;2024-01-27T20:28:16;5.90;99.90
41557;DHT22;27720;51.992;5.890;2024-01-27T20:30:42;5.90;99.90
41557;DHT22;27720;51.992;5.890;2024-01-27T20:33:10;5.90;99.90
41557;DHT22;27720;51.992;5.890;2024-01-27T20:35:36;5.90;99.90
41557;DHT22;27720;51.992;5.890;2024-01-27T20:38:02;5.90;99.90
41557;DHT22;27720;51.992;5.890;2024-01-27T20:40:27;5.90;99.90
41557;DHT22;27720;51.992;5.890;2024-01-27T20:42:53;5.90;99.90
41557;DHT22;27720;51.992;5.890;2024-01-27T20:45:19;5.90;99.90
41557;DHT22;27720;51.992;5.890;2024-01-27T20:47:47;5.90;99.90
41557;DHT22;27720;51.992;5.890;2024-01-27T20:50:13;5.90;99.90
41557;DHT22;27720;51.992;5.890;2024-01-27T20:52:38;5.90;99.90
41557;DHT22;27720;51.992;5.890;2024-01-27T20:55:13;5.90;99.90
41557;DHT22;27720;51.992;5.890;2024-01-27T20:57:38;5.90;99.90
41557;DHT22;27720;51.992;5.890;2024-01-27T21:00:04;5.90;99.90
41557;DHT22;27720;51.992;5.890;2024-01-27T21:02:30;5.90;99.90
41557;DHT22;27720;51.992;5.890;2024-01-27T21:04:56;5.80;99.90
41557;DHT22;27720;51.992;5.890;2024-01-27T21:07:22;5.80;99.90
41557;DHT22;27720;51.992;5.890;2024-01-27T21:09:47;5.80;99.90
41557;DHT22;27720;51.992;5.890;2024-01-27T21:12:13;5.80;99.90
41557;DHT22;27720;51.992;5.890;2024-01-27T21:14:39;5.80;99.90
41557;DHT22;27720;51.992;5.890;2024-01-27T21:17:04;5.80;99.90
41557;DHT22;27720;51.992;5.890;2024-01-27T21:19:30;5.80;99.90
41557;DHT22;27720;51.992;5.890;2024-01-27T21:21:57;5.70;99.90
41557;DHT22;27720;51.992;5.890;2024-01-27T21:24:22;5.70;99.90
41557;DHT22;27720;51.992;5.890;2024-01-27T21:26:48;5.70;99.90
41557;DHT22;27720;51.992;5.890;2024-01-27T21:29:14;5.70;99.90
41557;DHT22;27720;51.992;5.890;2024-01-27T21:31:39;5.70;99.90
41557;DHT22;27720;51.992;5.890;2024-01-27T21:34:05;5.60;99.90
41557;DHT22;27720;51.992;5.890;2024-01-27T21:36:31;5.70;99.90
41557;DHT22;27720;51.992;5.890;2024-01-27T21:38:57;5.60;99.90
41557;DHT22;27720;51.992;5.890;2024-01-27T21:41:25;5.60;99.90
41557;DHT22;27720;51.992;5.890;2024-01-27T21:43:50;5.60;99.90
41557;DHT22;27720;51.992;5.890;2024-01-27T21:46:22;5.60;99.90
41557;DHT22;27720;51.992;5.890;2024-01-27T21:51:58;5.60;99.90
41557;DHT22;27720;51.992;5.890;2024-01-27T21:54:24;5.50;99.90
41557;DHT22;27720;51.992;5.890;2024-01-27T21:56:50;5.50;99.90
41557;DHT22;27720;51.992;5.890;2024-01-27T21:59:16;5.50;99.90
41557;DHT22;27720;51.992;5.890;2024-01-27T22:01:42;5.40;99.90
41557;DHT22;27720;51.992;5.890;2024-01-27T22:04:08;5.40;99.90
41557;DHT22;27720;51.992;5.890;2024-01-27T22:06:34;5.40;99.90
41557;DHT22;27720;51.992;5.890;2024-01-27T22:08:59;5.40;99.90
41557;DHT22;27720;51.992;5.890;2024-01-27T22:11:25;5.40;99.90
41557;DHT22;27720;51.992;5.890;2024-01-27T22:13:51;5.40;99.90
41557;DHT22;27720;51.992;5.890;2024-01-27T22:16:17;5.40;99.90
41557;DHT22;27720;51.992;5.890;2024-01-27T22:18:42;5.30;99.90
41557;DHT22;27720;51.992;5.890;2024-01-27T22:21:09;5.40;99.90
41557;DHT22;27720;51.992;5.890;2024-01-27T22:23:35;5.30;99.90
41557;DHT22;27720;51.992;5.890;2024-01-27T22:26:00;5.40;99.90
41557;DHT22;27720;51.992;5.890;2024-01-27T22:28:26;5.40;99.90
41557;DHT22;27720;51.992;5.890;2024-01-27T22:30:52;5.40;99.90
41557;DHT22;27720;51.992;5.890;2024-01-27T22:33:18;5.40;99.90
41557;DHT22;27720;51.992;5.890;2024-01-27T22:35:45;5.40;99.90
41557;DHT22;27720;51.992;5.890;2024-01-27T22:38:12;5.40;99.90
41557;DHT22;27720;51.992;5.890;2024-01-27T22:40:37;5.30;99.90
41557;DHT22;27720;51.992;5.890;2024-01-27T22:43:04;5.30;99.90
41557;DHT22;27720;51.992;5.890;2024-01-27T22:45:30;5.30;99.90
41557;DHT22;27720;51.992;5.890;2024-01-27T22:47:56;5.30;99.90
41557;DHT22;27720;51.992;5.890;2024-01-27T22:50:21;5.30;99.90
41557;DHT22;27720;51.992;5.890;2024-01-27T22:52:47;5.30;99.90
41557;DHT22;27720;51.992;5.890;2024-01-27T22:55:13;5.30;99.90
41557;DHT22;27720;51.992;5.890;2024-01-27T22:57:39;5.20;99.90
41557;DHT22;27720;51.992;5.890;2024-01-27T23:00:06;5.20;99.90
41557;DHT22;27720;51.992;5.890;2024-01-27T23:02:37;5.20;99.90
41557;DHT22;27720;51.992;5.890;2024-01-27T23:05:03;5.20;99.90
41557;DHT22;27720;51.992;5.890;2024-01-27T23:07:29;5.20;99.90
41557;DHT22;27720;51.992;5.890;2024-01-27T23:09:55;5.20;99.90
41557;DHT22;27720;51.992;5.890;2024-01-27T23:12:20;5.10;99.90
41557;DHT22;27720;51.992;5.890;2024-01-27T23:14:46;5.10;99.90
41557;DHT22;27720;51.992;5.890;2024-01-27T23:17:12;5.10;99.90
41557;DHT22;27720;51.992;5.890;2024-01-27T23:19:38;5.10;99.90
41557;DHT22;27720;51.992;5.890;2024-01-27T23:22:03;5.10;99.90
41557;DHT22;27720;51.992;5.890;2024-01-27T23:24:29;5.10;99.90
41557;DHT22;27720;51.992;5.890;2024-01-27T23:26:55;5.10;99.90
41557;DHT22;27720;51.992;5.890;2024-01-27T23:29:20;5.10;99.90
41557;DHT22;27720;51.992;5.890;2024-01-27T23:31:46;5.00;99.90
41557;DHT22;27720;51.992;5.890;2024-01-27T23:34:12;5.00;99.90
41557;DHT22;27720;51.992;5.890;2024-01-27T23:36:37;5.00;99.90
41557;DHT22;27720;51.992;5.890;2024-01-27T23:39:03;5.00;99.90
41557;DHT22;27720;51.992;5.890;2024-01-27T23:41:29;5.00;99.90
41557;DHT22;27720;51.992;5.890;2024-01-27T23:43:55;5.00;99.90
41557;DHT22;27720;51.992;5.890;2024-01-27T23:46:21;5.00;99.90
41557;DHT22;27720;51.992;5.890;2024-01-27T23:48:46;5.00;99.90
41557;DHT22;27720;51.992;5.890;2024-01-27T23:51:12;4.90;99.90
41557;DHT22;27720;51.992;5.890;2024-01-27T23:53:38;4.90;99.90
41557;DHT22;27720;51.992;5.890;2024-01-27T23:56:05;4.90;99.90
41557;DHT22;27720;51.992;5.890;2024-01-27T23:58:31;5.00;99.90
